createdAt,value
2023-05-09T00:10:09.549Z,86.0
2023-05-09T00:23:09.565Z,83.0
2023-05-09T00:36:09.550Z,82.0
2023-05-09T00:49:09.560Z,84.0
2023-05-09T01:02:09.597Z,84.0
2023-05-09T01:15:09.609Z,84.0
2023-05-09T01:28:09.600Z,85.0
2023-05-09T01:41:09.581Z,87.0
2023-05-09T01:54:09.606Z,88.0
2023-05-09T02:07:09.615Z,87.0
2023-05-09T02:20:09.634Z,86.0
2023-05-09T02:33:09.663Z,87.0
2023-05-09T02:46:09.669Z,89.0
2023-05-09T02:59:09.660Z,88.0
2023-05-09T03:12:09.684Z,87.0
2023-05-09T03:25:09.669Z,89.0
2023-05-09T03:38:09.674Z,90.0
2023-05-09T03:52:09.693Z,91.0
2023-05-09T04:06:09.693Z,92.0
2023-05-09T04:20:09.703Z,92.0
2023-05-09T04:34:09.702Z,92.0
2023-05-09T04:48:09.726Z,91.0
2023-05-09T05:02:09.726Z,86.0
2023-05-09T05:16:09.757Z,83.0
2023-05-09T05:30:09.776Z,79.0
2023-05-09T05:44:09.761Z,76.0
2023-05-09T05:58:09.758Z,76.0
2023-05-09T06:12:09.925Z,74.0
2023-05-09T06:27:09.768Z,72.0
2023-05-09T06:42:09.827Z,72.0
2023-05-09T06:57:09.777Z,71.0
2023-05-09T07:11:09.767Z,70.0
2023-05-09T07:25:09.791Z,69.0
2023-05-09T07:39:09.778Z,70.0
2023-05-09T07:53:09.780Z,68.0
2023-05-09T08:07:09.789Z,69.0
2023-05-09T08:21:09.813Z,62.0
2023-05-09T08:35:09.825Z,61.0
2023-05-09T08:54:09.874Z,54.0
2023-05-09T09:08:09.857Z,53.0
2023-05-09T09:24:09.870Z,56.0
2023-05-09T09:39:09.856Z,53.0
2023-05-09T09:53:09.857Z,55.0
2023-05-09T10:07:11.128Z,54.0
2023-05-09T10:21:09.920Z,53.0
2023-05-09T10:35:09.889Z,53.0
2023-05-09T10:49:09.882Z,50.0
2023-05-09T11:03:09.940Z,51.0
2023-05-09T11:17:09.934Z,51.0
2023-05-09T11:31:09.917Z,51.0
2023-05-09T11:45:09.895Z,53.0
2023-05-09T11:59:09.892Z,48.0
2023-05-09T12:18:09.916Z,52.0
2023-05-09T12:46:09.905Z,51.0
2023-05-09T13:00:09.912Z,55.0
2023-05-09T13:14:09.910Z,55.0
2023-05-09T13:28:09.921Z,53.0
2023-05-09T13:42:09.949Z,55.0
2023-05-09T13:56:09.957Z,57.0
2023-05-09T14:10:11.691Z,57.0
2023-05-09T14:24:10.018Z,58.0
2023-05-09T14:38:09.943Z,58.0
2023-05-09T14:52:09.937Z,60.0
2023-05-09T15:06:10.027Z,60.0
2023-05-09T15:20:09.945Z,62.0
2023-05-09T15:34:09.949Z,63.0
2023-05-09T15:48:09.993Z,64.0
2023-05-09T16:02:09.993Z,64.0
2023-05-09T16:16:09.994Z,61.0
2023-05-09T16:30:10.001Z,60.0
2023-05-09T16:44:09.986Z,62.0
2023-05-09T16:58:10.015Z,64.0
2023-05-09T17:12:09.979Z,66.0
2023-05-09T17:26:10.003Z,67.0
2023-05-09T17:40:09.993Z,70.0
2023-05-09T17:54:10.029Z,72.0
2023-05-09T18:08:10.027Z,74.0
2023-05-09T18:22:10.008Z,75.0
2023-05-09T18:36:10.056Z,78.0
2023-05-09T18:50:10.129Z,77.0
2023-05-09T19:04:10.148Z,76.0
2023-05-09T19:17:10.132Z,76.0
2023-05-09T19:30:10.077Z,78.0
2023-05-09T19:43:10.083Z,78.0
2023-05-09T19:56:10.081Z,80.0
2023-05-09T20:09:10.101Z,81.0
2023-05-09T20:22:10.115Z,83.0
2023-05-09T20:35:10.104Z,84.0
2023-05-09T20:48:10.110Z,83.0
2023-05-09T21:01:10.146Z,82.0
2023-05-09T21:14:10.199Z,82.0
2023-05-09T21:27:10.183Z,80.0
2023-05-09T21:40:10.203Z,79.0
2023-05-09T21:53:10.192Z,74.0
2023-05-09T22:06:10.212Z,72.0
2023-05-09T22:19:10.213Z,71.0
2023-05-09T22:32:10.221Z,69.0
2023-05-09T22:45:10.213Z,68.0
2023-05-09T22:58:10.226Z,67.0
2023-05-09T23:11:10.251Z,65.0
2023-05-09T23:24:10.218Z,63.0
2023-05-09T23:37:10.240Z,63.0
2023-05-09T23:50:10.224Z,64.0
